createdAt,value
2018-04-06T00:05:05.052Z,10.37
2018-04-06T00:10:55.728Z,14.76
2018-04-06T00:16:46.328Z,11.66
2018-04-06T00:22:36.999Z,9.63
2018-04-06T00:28:27.604Z,14.06
2018-04-06T00:34:18.213Z,12.37
2018-04-06T00:40:08.865Z,14.08
2018-04-06T00:45:59.494Z,12.91
2018-04-06T00:51:50.168Z,13.74
2018-04-06T00:57:40.755Z,13.4
2018-04-06T01:03:31.400Z,13.03
2018-04-06T01:09:22.035Z,17.01
2018-04-06T01:15:12.681Z,15.48
2018-04-06T01:21:03.289Z,17.47
2018-04-06T01:26:53.948Z,26.46
2018-04-06T01:32:44.562Z,24.44
2018-04-06T01:38:35.251Z,19.74
2018-04-06T01:44:25.819Z,24.19
2018-04-06T01:50:16.454Z,21.8
2018-04-06T01:56:07.089Z,22.14
2018-04-06T02:01:57.715Z,25.94
2018-04-06T02:07:48.373Z,36.71
2018-04-06T02:13:39.000Z,31.48
2018-04-06T02:19:29.706Z,39.43
2018-04-06T02:25:20.280Z,35.75
2018-04-06T02:31:10.921Z,35.01
2018-04-06T02:37:01.538Z,33.36
2018-04-06T02:42:52.161Z,29.92
2018-04-06T02:48:42.837Z,31.15
2018-04-06T02:54:33.444Z,19.87
2018-04-06T03:00:24.082Z,25.95
2018-04-06T03:06:14.728Z,34.7
2018-04-06T03:12:05.320Z,32.06
2018-04-06T03:17:55.948Z,16.92
2018-04-06T03:23:46.605Z,20.42
2018-04-06T03:29:37.213Z,13.26
2018-04-06T03:35:27.879Z,14.15
2018-04-06T03:41:18.496Z,11.94
2018-04-06T03:47:09.127Z,14.2
2018-04-06T03:52:59.760Z,14.2
2018-04-06T03:58:50.454Z,14.13
2018-04-06T04:04:41.031Z,13.71
2018-04-06T04:10:31.680Z,26.28
2018-04-06T04:16:22.334Z,43.01
2018-04-06T04:22:12.968Z,37.38
2018-04-06T04:28:03.703Z,28.64
2018-04-06T04:33:54.242Z,31.1
2018-04-06T04:39:44.862Z,30.46
2018-04-06T04:45:35.510Z,27.48
2018-04-06T04:51:26.146Z,22.06
2018-04-06T04:57:16.782Z,20.9
2018-04-06T05:03:07.473Z,22.76
2018-04-06T05:08:58.127Z,29.68
2018-04-06T05:14:48.721Z,29.02
2018-04-06T05:20:39.352Z,51.52
2018-04-06T05:26:30.031Z,58.9
2018-04-06T05:32:20.755Z,48.79
2018-04-06T05:38:11.335Z,46.86
2018-04-06T05:44:01.903Z,57.27
2018-04-06T05:49:52.552Z,55.93
2018-04-06T05:55:43.183Z,61.9
2018-04-06T06:01:33.802Z,65.62
2018-04-06T06:07:24.483Z,59.45
2018-04-06T06:13:15.097Z,53.99
2018-04-06T06:19:05.733Z,66.34
2018-04-06T06:24:56.418Z,55.72
2018-04-06T06:30:47.006Z,52.07
2018-04-06T06:36:37.655Z,55.58
2018-04-06T06:42:28.323Z,67.51
2018-04-06T06:48:19.022Z,58.86
2018-04-06T06:54:09.586Z,110.79
2018-04-06T07:00:00.272Z,88.73
2018-04-06T07:05:50.862Z,83.61
2018-04-06T07:11:41.582Z,84.4
2018-04-06T07:17:32.180Z,57.19
2018-04-06T07:23:22.825Z,64.35
2018-04-06T07:29:13.508Z,69.92
2018-04-06T07:35:04.142Z,44.23
2018-04-06T07:40:54.801Z,47.26
2018-04-06T07:46:45.417Z,48.16
2018-04-06T07:52:36.094Z,56.92
2018-04-06T07:58:26.746Z,52.26
2018-04-06T08:04:17.415Z,56.14
2018-04-06T08:10:08.092Z,62.05
2018-04-06T08:15:58.718Z,54.39
2018-04-06T08:21:49.350Z,55.4
2018-04-06T08:27:40.042Z,65.17
2018-04-06T08:33:30.682Z,69.16
2018-04-06T08:39:21.369Z,51.74
2018-04-06T08:45:12.004Z,48.99
2018-04-06T08:51:02.668Z,43.86
2018-04-06T08:56:53.354Z,49.22
2018-04-06T09:02:44.013Z,54.54
2018-04-06T09:08:34.702Z,42.77
2018-04-06T09:14:25.403Z,44.38
2018-04-06T09:20:16.005Z,49.44
2018-04-06T09:26:06.672Z,43.39
2018-04-06T09:31:57.329Z,44.84
2018-04-06T09:37:48.064Z,39.63
2018-04-06T09:43:38.652Z,40.73
2018-04-06T09:49:29.351Z,39.29
2018-04-06T09:55:19.992Z,38.01
2018-04-06T10:01:10.639Z,36.75
2018-04-06T10:07:01.328Z,47.26
2018-04-06T10:12:51.966Z,41.14
2018-04-06T10:18:42.673Z,38.06
2018-04-06T10:24:33.357Z,43.13
2018-04-06T10:30:24.004Z,46.4
2018-04-06T10:36:14.657Z,39.61
2018-04-06T10:42:05.293Z,35.67
2018-04-06T10:47:55.947Z,36.64
2018-04-06T10:53:46.634Z,29.73
2018-04-06T10:59:37.290Z,31.99
2018-04-06T11:05:27.940Z,37.13
2018-04-06T11:11:18.611Z,35.88
2018-04-06T11:17:09.309Z,29.9
2018-04-06T11:23:00.008Z,33.11
2018-04-06T11:28:50.640Z,24.56
2018-04-06T11:34:41.303Z,25.81
2018-04-06T11:40:31.995Z,25.71
2018-04-06T11:46:22.706Z,31.49
2018-04-06T11:52:13.357Z,22.5
2018-04-06T11:58:04.100Z,19.14
2018-04-06T12:03:54.743Z,20.05
2018-04-06T12:09:45.421Z,22.45
2018-04-06T12:15:36.135Z,17.83
2018-04-06T12:21:26.841Z,15.2
2018-04-06T12:27:17.517Z,19.19
2018-04-06T12:33:08.200Z,13.89
2018-04-06T12:38:58.940Z,11.66
2018-04-06T12:44:49.674Z,13.75
2018-04-06T12:50:40.374Z,9.19
2018-04-06T12:56:31.151Z,11.67
2018-04-06T13:02:21.912Z,16.9
2018-04-06T13:08:12.676Z,8.4
2018-04-06T13:14:03.447Z,5.4
2018-04-06T13:19:54.279Z,9.94
2018-04-06T13:25:44.994Z,8.23
2018-04-06T13:31:35.791Z,7.7
2018-04-06T13:37:26.582Z,6.14
2018-04-06T13:43:17.372Z,6.65
2018-04-06T13:49:08.191Z,4.25
2018-04-06T13:54:59.068Z,5.66
2018-04-06T14:00:49.844Z,3.33
2018-04-06T14:06:40.636Z,4
2018-04-06T14:12:31.460Z,2.9
2018-04-06T14:18:22.316Z,3.07
2018-04-06T14:24:13.128Z,5.53
2018-04-06T14:30:03.973Z,3.05
2018-04-06T14:35:54.815Z,2.53
2018-04-06T14:41:45.669Z,2.71
2018-04-06T14:47:36.491Z,3.95
2018-04-06T14:53:27.335Z,3.29
2018-04-06T14:59:18.187Z,3.29
2018-04-06T15:05:08.993Z,3.69
2018-04-06T15:10:59.829Z,3.3
2018-04-06T15:16:50.653Z,3.33
2018-04-06T15:22:41.460Z,3.27
2018-04-06T15:28:32.272Z,3
2018-04-06T15:34:23.096Z,3.86
2018-04-06T15:40:13.854Z,3.43
2018-04-06T15:46:04.657Z,3.12
2018-04-06T15:51:55.458Z,4.99
2018-04-06T15:57:46.241Z,10.38
2018-04-06T16:03:36.971Z,5.3
2018-04-06T16:09:27.776Z,5.86
2018-04-06T16:15:18.529Z,2.73
2018-04-06T16:21:09.265Z,4.01
2018-04-06T16:27:00.036Z,3.37
2018-04-06T16:32:50.858Z,5.44
2018-04-06T16:38:41.604Z,5.79
2018-04-06T16:44:32.320Z,7.01
2018-04-06T16:50:23.086Z,11.43
2018-04-06T16:56:13.817Z,18.39
2018-04-06T17:02:04.581Z,10.79
2018-04-06T17:07:55.301Z,14.23
2018-04-06T17:13:46.087Z,16.84
2018-04-06T17:19:36.814Z,12.71
2018-04-06T17:25:27.614Z,15.95
2018-04-06T17:31:18.323Z,16.54
2018-04-06T17:37:09.018Z,18.69
2018-04-06T17:42:59.742Z,26.6
2018-04-06T17:48:50.474Z,19.71
2018-04-06T17:54:41.210Z,26.31
2018-04-06T18:00:31.959Z,28.76
2018-04-06T18:06:22.652Z,28.58
2018-04-06T18:12:13.359Z,16.55
2018-04-06T18:18:04.085Z,20.41
2018-04-06T18:23:54.789Z,23.85
2018-04-06T18:29:45.475Z,18.33
2018-04-06T18:35:36.205Z,20.72
2018-04-06T18:41:26.868Z,19.2
2018-04-06T18:47:17.587Z,16.31
2018-04-06T18:53:08.309Z,17.88
2018-04-06T18:58:58.981Z,29.39
2018-04-06T19:04:49.680Z,25.93
2018-04-06T19:10:40.392Z,27.18
2018-04-06T19:16:31.058Z,23.02
2018-04-06T19:22:21.768Z,26.84
2018-04-06T19:28:12.474Z,27.7
2018-04-06T19:34:03.150Z,20.67
2018-04-06T19:39:53.889Z,21.31
2018-04-06T19:45:44.548Z,21.73
2018-04-06T19:51:35.229Z,23.98
2018-04-06T19:57:25.894Z,22.52
2018-04-06T20:03:16.596Z,25.46
2018-04-06T20:09:07.370Z,29
2018-04-06T20:14:57.997Z,22.84
2018-04-06T20:20:48.653Z,25.33
2018-04-06T20:26:39.336Z,30.25
2018-04-06T20:32:30.084Z,29.48
2018-04-06T20:38:20.722Z,28.66
2018-04-06T20:44:11.453Z,26.37
2018-04-06T20:50:02.061Z,20.82
2018-04-06T20:55:52.792Z,18.59
2018-04-06T21:01:43.411Z,18.85
2018-04-06T21:07:34.099Z,25.34
2018-04-06T21:13:24.841Z,25.53
2018-04-06T21:19:15.441Z,22.2
2018-04-06T21:25:06.130Z,21.97
2018-04-06T21:30:56.823Z,21.5
2018-04-06T21:36:47.624Z,18.16
2018-04-06T21:42:38.154Z,20.09
2018-04-06T21:48:28.814Z,19.09
2018-04-06T21:54:19.553Z,19.12
2018-04-06T22:00:10.201Z,21.58
2018-04-06T22:06:00.863Z,28.62
2018-04-06T22:11:51.528Z,20.54
2018-04-06T22:17:42.228Z,23.95
2018-04-06T22:23:32.851Z,19.58
2018-04-06T22:29:23.492Z,24.68
2018-04-06T22:35:14.207Z,21.89
2018-04-06T22:41:04.848Z,23.81
2018-04-06T22:46:55.496Z,18.1
2018-04-06T22:52:46.170Z,15.76
2018-04-06T22:58:36.854Z,15.18
2018-04-06T23:04:27.543Z,13.24
2018-04-06T23:10:18.146Z,17.79
2018-04-06T23:16:08.799Z,18.71
2018-04-06T23:21:59.487Z,80.11
2018-04-06T23:27:50.115Z,34.76
2018-04-06T23:33:40.808Z,25.81
2018-04-06T23:39:31.422Z,15.18
2018-04-06T23:45:22.127Z,17.54
2018-04-06T23:51:12.772Z,10.38
2018-04-06T23:57:03.401Z,15.3
